sensor_id;sensor_type;location;lat;lon;timestamp;pressure;altitude;pressure_sealevel;temperature;humidity
10958;BME280;5531;42.570;23.676;2023-07-08T00:00:26;92344.69;;;17.69;100.00
10958;BME280;5531;42.570;23.676;2023-07-08T00:02:55;92341.09;;;17.63;100.00
10958;BME280;5531;42.570;23.676;2023-07-08T00:05:25;92338.78;;;17.55;100.00
10958;BME280;5531;42.570;23.676;2023-07-08T00:07:54;92335.81;;;17.51;100.00
10958;BME280;5531;42.570;23.676;2023-07-08T00:10:24;92343.41;;;17.59;100.00
10958;BME280;5531;42.570;23.676;2023-07-08T00:12:55;92345.94;;;17.66;100.00
10958;BME280;5531;42.570;23.676;2023-07-08T00:15:29;92335.22;;;17.73;100.00
10958;BME280;5531;42.570;23.676;2023-07-08T00:17:59;92337.84;;;17.73;100.00
10958;BME280;5531;42.570;23.676;2023-07-08T00:20:32;92334.06;;;17.69;100.00
10958;BME280;5531;42.570;23.676;2023-07-08T00:23:01;92340.63;;;17.66;100.00
10958;BME280;5531;42.570;23.676;2023-07-08T00:25:31;92336.94;;;17.67;100.00
10958;BME280;5531;42.570;23.676;2023-07-08T00:28:01;92333.06;;;17.70;100.00
10958;BME280;5531;42.570;23.676;2023-07-08T00:30:32;92326.47;;;17.72;100.00
10958;BME280;5531;42.570;23.676;2023-07-08T00:33:01;92325.09;;;17.70;100.00
10958;BME280;5531;42.570;23.676;2023-07-08T00:35:33;92326.47;;;17.61;100.00
10958;BME280;5531;42.570;23.676;2023-07-08T00:38:12;92327.63;;;17.53;100.00
10958;BME280;5531;42.570;23.676;2023-07-08T00:40:52;92313.09;;;17.44;100.00
10958;BME280;5531;42.570;23.676;2023-07-08T00:43:36;92310.94;;;17.40;100.00
10958;BME280;5531;42.570;23.676;2023-07-08T00:46:16;92305.38;;;17.42;100.00
10958;BME280;5531;42.570;23.676;2023-07-08T00:48:48;92310.81;;;17.35;100.00
10958;BME280;5531;42.570;23.676;2023-07-08T00:51:18;92312.19;;;17.38;100.00
10958;BME280;5531;42.570;23.676;2023-07-08T00:53:48;92308.63;;;17.32;100.00
10958;BME280;5531;42.570;23.676;2023-07-08T00:56:23;92308.28;;;17.29;100.00
10958;BME280;5531;42.570;23.676;2023-07-08T00:58:57;92305.75;;;17.22;100.00
10958;BME280;5531;42.570;23.676;2023-07-08T01:01:33;92301.84;;;17.25;100.00
10958;BME280;5531;42.570;23.676;2023-07-08T01:04:06;92297.78;;;17.22;100.00
10958;BME280;5531;42.570;23.676;2023-07-08T01:06:41;92295.03;;;17.29;100.00
10958;BME280;5531;42.570;23.676;2023-07-08T01:09:14;92300.78;;;17.26;100.00
10958;BME280;5531;42.570;23.676;2023-07-08T01:11:44;92286.63;;;17.20;100.00
10958;BME280;5531;42.570;23.676;2023-07-08T01:14:17;92290.41;;;17.24;100.00
10958;BME280;5531;42.570;23.676;2023-07-08T01:16:51;92290.91;;;17.21;100.00
10958;BME280;5531;42.570;23.676;2023-07-08T01:19:21;92288.72;;;17.18;100.00
10958;BME280;5531;42.570;23.676;2023-07-08T01:22:05;92278.47;;;17.10;100.00
10958;BME280;5531;42.570;23.676;2023-07-08T01:24:36;92276.38;;;17.12;100.00
10958;BME280;5531;42.570;23.676;2023-07-08T01:27:10;92273.41;;;17.08;100.00
10958;BME280;5531;42.570;23.676;2023-07-08T01:29:40;92275.59;;;17.11;100.00
10958;BME280;5531;42.570;23.676;2023-07-08T01:32:11;92274.31;;;17.14;100.00
10958;BME280;5531;42.570;23.676;2023-07-08T01:34:45;92277.31;;;17.17;100.00
10958;BME280;5531;42.570;23.676;2023-07-08T01:37:30;92277.06;;;17.19;100.00
10958;BME280;5531;42.570;23.676;2023-07-08T01:40:22;92289.84;;;17.22;100.00
10958;BME280;5531;42.570;23.676;2023-07-08T01:42:52;92279.50;;;17.20;100.00
10958;BME280;5531;42.570;23.676;2023-07-08T01:45:23;92283.19;;;17.19;100.00
10958;BME280;5531;42.570;23.676;2023-07-08T01:47:55;92283.41;;;17.18;100.00
10958;BME280;5531;42.570;23.676;2023-07-08T01:50:26;92274.53;;;17.12;100.00
10958;BME280;5531;42.570;23.676;2023-07-08T01:53:00;92273.97;;;17.10;100.00
10958;BME280;5531;42.570;23.676;2023-07-08T01:55:31;92282.03;;;17.03;100.00
10958;BME280;5531;42.570;23.676;2023-07-08T01:58:00;92277.06;;;17.07;100.00
10958;BME280;5531;42.570;23.676;2023-07-08T02:00:29;92276.50;;;17.05;100.00
10958;BME280;5531;42.570;23.676;2023-07-08T02:02:58;92276.63;;;17.10;100.00
10958;BME280;5531;42.570;23.676;2023-07-08T02:05:27;92280.97;;;17.04;100.00
10958;BME280;5531;42.570;23.676;2023-07-08T02:07:58;92286.59;;;16.96;100.00
10958;BME280;5531;42.570;23.676;2023-07-08T02:10:27;92283.38;;;16.94;100.00
10958;BME280;5531;42.570;23.676;2023-07-08T02:12:56;92285.34;;;16.87;100.00
10958;BME280;5531;42.570;23.676;2023-07-08T02:15:25;92269.69;;;16.85;100.00
10958;BME280;5531;42.570;23.676;2023-07-08T02:17:55;92271.88;;;16.89;100.00
10958;BME280;5531;42.570;23.676;2023-07-08T02:20:24;92279.31;;;16.80;100.00
10958;BME280;5531;42.570;23.676;2023-07-08T02:22:53;92281.59;;;16.76;100.00
10958;BME280;5531;42.570;23.676;2023-07-08T02:25:25;92291.84;;;16.73;100.00
10958;BME280;5531;42.570;23.676;2023-07-08T02:27:54;92279.41;;;16.73;100.00
10958;BME280;5531;42.570;23.676;2023-07-08T02:30:24;92279.88;;;16.70;100.00
10958;BME280;5531;42.570;23.676;2023-07-08T02:32:53;92288.84;;;16.69;100.00
10958;BME280;5531;42.570;23.676;2023-07-08T02:35:27;92292.41;;;16.63;100.00
10958;BME280;5531;42.570;23.676;2023-07-08T02:37:57;92293.06;;;16.58;100.00
10958;BME280;5531;42.570;23.676;2023-07-08T02:40:29;92298.91;;;16.48;100.00
10958;BME280;5531;42.570;23.676;2023-07-08T02:42:58;92312.34;;;16.47;100.00
10958;BME280;5531;42.570;23.676;2023-07-08T02:45:27;92314.78;;;16.48;100.00
10958;BME280;5531;42.570;23.676;2023-07-08T02:47:56;92319.84;;;16.50;100.00
10958;BME280;5531;42.570;23.676;2023-07-08T02:50:25;92322.16;;;16.58;100.00
10958;BME280;5531;42.570;23.676;2023-07-08T02:52:54;92321.50;;;16.63;100.00
10958;BME280;5531;42.570;23.676;2023-07-08T02:55:22;92322.41;;;16.68;100.00
10958;BME280;5531;42.570;23.676;2023-07-08T02:57:54;92310.25;;;16.67;100.00
10958;BME280;5531;42.570;23.676;2023-07-08T03:00:23;92312.28;;;16.65;100.00
10958;BME280;5531;42.570;23.676;2023-07-08T03:02:52;92308.25;;;16.63;100.00
10958;BME280;5531;42.570;23.676;2023-07-08T03:05:21;92318.84;;;16.63;100.00
10958;BME280;5531;42.570;23.676;2023-07-08T03:07:50;92323.13;;;16.64;100.00
10958;BME280;5531;42.570;23.676;2023-07-08T03:10:19;92330.91;;;16.59;100.00
10958;BME280;5531;42.570;23.676;2023-07-08T03:12:48;92330.09;;;16.58;100.00
10958;BME280;5531;42.570;23.676;2023-07-08T03:15:20;92327.09;;;16.55;100.00
10958;BME280;5531;42.570;23.676;2023-07-08T03:17:48;92327.78;;;16.50;100.00
10958;BME280;5531;42.570;23.676;2023-07-08T03:20:19;92318.22;;;16.49;100.00
10958;BME280;5531;42.570;23.676;2023-07-08T03:22:48;92320.28;;;16.47;100.00
10958;BME280;5531;42.570;23.676;2023-07-08T03:25:17;92315.56;;;16.49;100.00
10958;BME280;5531;42.570;23.676;2023-07-08T03:27:47;92321.81;;;16.55;100.00
10958;BME280;5531;42.570;23.676;2023-07-08T03:30:16;92323.03;;;16.71;100.00
10958;BME280;5531;42.570;23.676;2023-07-08T03:32:47;92326.38;;;16.78;100.00
10958;BME280;5531;42.570;23.676;2023-07-08T03:35:16;92330.41;;;16.80;100.00
10958;BME280;5531;42.570;23.676;2023-07-08T03:37:46;92329.81;;;16.78;100.00
10958;BME280;5531;42.570;23.676;2023-07-08T03:40:15;92333.94;;;16.74;100.00
10958;BME280;5531;42.570;23.676;2023-07-08T03:42:44;92338.19;;;16.75;100.00
10958;BME280;5531;42.570;23.676;2023-07-08T03:45:13;92332.31;;;16.73;100.00
10958;BME280;5531;42.570;23.676;2023-07-08T03:47:42;92340.50;;;16.72;100.00
10958;BME280;5531;42.570;23.676;2023-07-08T03:50:17;92340.13;;;16.68;100.00
10958;BME280;5531;42.570;23.676;2023-07-08T03:52:47;92335.06;;;16.66;100.00
10958;BME280;5531;42.570;23.676;2023-07-08T03:55:16;92337.50;;;16.68;100.00
10958;BME280;5531;42.570;23.676;2023-07-08T03:57:45;92332.69;;;16.77;100.00
10958;BME280;5531;42.570;23.676;2023-07-08T04:00:15;92328.91;;;16.84;100.00
10958;BME280;5531;42.570;23.676;2023-07-08T04:02:45;92322.50;;;16.92;100.00
10958;BME280;5531;42.570;23.676;2023-07-08T04:05:19;92321.34;;;16.88;100.00
10958;BME280;5531;42.570;23.676;2023-07-08T04:07:49;92321.50;;;16.93;100.00
10958;BME280;5531;42.570;23.676;2023-07-08T04:10:18;92324.03;;;17.00;100.00
10958;BME280;5531;42.570;23.676;2023-07-08T04:12:47;92321.28;;;17.07;100.00
10958;BME280;5531;42.570;23.676;2023-07-08T04:15:16;92315.75;;;17.20;100.00
10958;BME280;5531;42.570;23.676;2023-07-08T04:17:51;92304.72;;;17.23;100.00
10958;BME280;5531;42.570;23.676;2023-07-08T04:20:24;92311.53;;;17.31;100.00
10958;BME280;5531;42.570;23.676;2023-07-08T04:22:53;92320.72;;;17.40;100.00
10958;BME280;5531;42.570;23.676;2023-07-08T04:25:22;92322.91;;;17.55;100.00
10958;BME280;5531;42.570;23.676;2023-07-08T04:27:51;92327.97;;;17.56;100.00
10958;BME280;5531;42.570;23.676;2023-07-08T04:30:22;92329.34;;;17.59;100.00
10958;BME280;5531;42.570;23.676;2023-07-08T04:32:51;92318.31;;;17.62;100.00
10958;BME280;5531;42.570;23.676;2023-07-08T04:35:24;92312.44;;;17.60;100.00
10958;BME280;5531;42.570;23.676;2023-07-08T04:37:54;92318.75;;;17.59;100.00
10958;BME280;5531;42.570;23.676;2023-07-08T04:40:23;92313.00;;;17.62;100.00
10958;BME280;5531;42.570;23.676;2023-07-08T04:42:52;92314.97;;;17.67;100.00
10958;BME280;5531;42.570;23.676;2023-07-08T04:45:21;92320.47;;;17.77;100.00
10958;BME280;5531;42.570;23.676;2023-07-08T04:47:50;92319.66;;;17.76;100.00
10958;BME280;5531;42.570;23.676;2023-07-08T04:50:19;92315.75;;;17.91;100.00
10958;BME280;5531;42.570;23.676;2023-07-08T04:52:51;92313.22;;;17.96;100.00
10958;BME280;5531;42.570;23.676;2023-07-08T04:55:22;92322.16;;;18.07;100.00
10958;BME280;5531;42.570;23.676;2023-07-08T04:57:51;92308.69;;;18.08;100.00
10958;BME280;5531;42.570;23.676;2023-07-08T05:00:20;92309.59;;;18.02;100.00
10958;BME280;5531;42.570;23.676;2023-07-08T05:02:49;92311.94;;;17.99;100.00
10958;BME280;5531;42.570;23.676;2023-07-08T05:05:20;92317.44;;;18.09;100.00
10958;BME280;5531;42.570;23.676;2023-07-08T05:07:51;92314.91;;;18.02;100.00
10958;BME280;5531;42.570;23.676;2023-07-08T05:10:21;92318.84;;;18.00;100.00
10958;BME280;5531;42.570;23.676;2023-07-08T05:12:50;92325.06;;;17.93;100.00
10958;BME280;5531;42.570;23.676;2023-07-08T05:15:19;92331.03;;;18.01;100.00
10958;BME280;5531;42.570;23.676;2023-07-08T05:17:50;92329.97;;;18.13;100.00
10958;BME280;5531;42.570;23.676;2023-07-08T05:20:19;92320.97;;;18.26;100.00
10958;BME280;5531;42.570;23.676;2023-07-08T05:22:51;92332.50;;;18.20;100.00
10958;BME280;5531;42.570;23.676;2023-07-08T05:25:20;92332.84;;;18.24;100.00
10958;BME280;5531;42.570;23.676;2023-07-08T05:27:49;92332.25;;;18.34;100.00
10958;BME280;5531;42.570;23.676;2023-07-08T05:30:19;92332.13;;;18.40;100.00
10958;BME280;5531;42.570;23.676;2023-07-08T05:32:48;92328.41;;;18.41;100.00
10958;BME280;5531;42.570;23.676;2023-07-08T05:35:17;92333.91;;;18.52;100.00
10958;BME280;5531;42.570;23.676;2023-07-08T05:37:46;92338.84;;;18.60;100.00
10958;BME280;5531;42.570;23.676;2023-07-08T05:40:18;92351.72;;;18.68;100.00
10958;BME280;5531;42.570;23.676;2023-07-08T05:42:47;92340.91;;;18.58;100.00
10958;BME280;5531;42.570;23.676;2023-07-08T05:45:16;92345.41;;;18.57;100.00
10958;BME280;5531;42.570;23.676;2023-07-08T05:47:45;92336.03;;;18.38;100.00
10958;BME280;5531;42.570;23.676;2023-07-08T05:50:14;92348.81;;;18.41;100.00
10958;BME280;5531;42.570;23.676;2023-07-08T05:52:43;92352.34;;;18.58;100.00
10958;BME280;5531;42.570;23.676;2023-07-08T05:55:13;92351.03;;;18.73;100.00
10958;BME280;5531;42.570;23.676;2023-07-08T05:57:44;92352.38;;;18.75;100.00
10958;BME280;5531;42.570;23.676;2023-07-08T06:00:14;92362.06;;;18.81;100.00
10958;BME280;5531;42.570;23.676;2023-07-08T06:02:43;92360.66;;;18.79;100.00
10958;BME280;5531;42.570;23.676;2023-07-08T06:05:12;92361.25;;;18.81;100.00
10958;BME280;5531;42.570;23.676;2023-07-08T06:07:41;92373.03;;;18.85;100.00
10958;BME280;5531;42.570;23.676;2023-07-08T06:10:10;92366.13;;;18.72;100.00
10958;BME280;5531;42.570;23.676;2023-07-08T06:12:40;92374.00;;;18.67;100.00
10958;BME280;5531;42.570;23.676;2023-07-08T06:15:12;92374.94;;;18.61;100.00
10958;BME280;5531;42.570;23.676;2023-07-08T06:17:42;92377.50;;;18.56;100.00
10958;BME280;5531;42.570;23.676;2023-07-08T06:20:11;92375.16;;;18.59;100.00
10958;BME280;5531;42.570;23.676;2023-07-08T06:22:40;92376.31;;;18.63;100.00
10958;BME280;5531;42.570;23.676;2023-07-08T06:25:09;92386.66;;;18.77;100.00
10958;BME280;5531;42.570;23.676;2023-07-08T06:27:38;92389.72;;;18.97;100.00
10958;BME280;5531;42.570;23.676;2023-07-08T06:30:08;92384.91;;;19.11;100.00
10958;BME280;5531;42.570;23.676;2023-07-08T06:32:40;92375.19;;;19.17;100.00
10958;BME280;5531;42.570;23.676;2023-07-08T06:35:10;92375.66;;;19.14;100.00
10958;BME280;5531;42.570;23.676;2023-07-08T06:37:39;92381.63;;;19.21;100.00
10958;BME280;5531;42.570;23.676;2023-07-08T06:40:09;92379.72;;;19.33;100.00
10958;BME280;5531;42.570;23.676;2023-07-08T06:42:38;92377.22;;;19.44;99.37
10958;BME280;5531;42.570;23.676;2023-07-08T06:45:09;92379.31;;;19.41;97.93
10958;BME280;5531;42.570;23.676;2023-07-08T06:47:41;92377.13;;;19.38;98.69
10958;BME280;5531;42.570;23.676;2023-07-08T06:50:11;92377.59;;;19.35;99.43
10958;BME280;5531;42.570;23.676;2023-07-08T06:52:40;92382.28;;;19.28;99.40
10958;BME280;5531;42.570;23.676;2023-07-08T06:55:10;92378.81;;;19.28;100.00
10958;BME280;5531;42.570;23.676;2023-07-08T06:57:40;92381.31;;;19.34;100.00
10958;BME280;5531;42.570;23.676;2023-07-08T07:00:12;92384.94;;;19.45;100.00
10958;BME280;5531;42.570;23.676;2023-07-08T07:02:44;92386.72;;;19.56;99.60
10958;BME280;5531;42.570;23.676;2023-07-08T07:05:13;92389.97;;;19.75;99.51
10958;BME280;5531;42.570;23.676;2023-07-08T07:07:42;92397.59;;;19.89;97.50
10958;BME280;5531;42.570;23.676;2023-07-08T07:10:11;92390.31;;;20.01;98.64
10958;BME280;5531;42.570;23.676;2023-07-08T07:12:40;92395.38;;;20.20;98.68
10958;BME280;5531;42.570;23.676;2023-07-08T07:15:10;92395.75;;;20.28;96.26
10958;BME280;5531;42.570;23.676;2023-07-08T07:17:39;92392.16;;;20.40;95.06
10958;BME280;5531;42.570;23.676;2023-07-08T07:20:12;92397.09;;;20.53;96.26
10958;BME280;5531;42.570;23.676;2023-07-08T07:22:41;92401.16;;;20.56;93.23
10958;BME280;5531;42.570;23.676;2023-07-08T07:25:10;92401.75;;;20.63;93.52
10958;BME280;5531;42.570;23.676;2023-07-08T07:27:40;92397.03;;;20.65;94.66
10958;BME280;5531;42.570;23.676;2023-07-08T07:30:10;92419.25;;;20.76;94.55
10958;BME280;5531;42.570;23.676;2023-07-08T07:32:41;92417.81;;;20.90;93.18
10958;BME280;5531;42.570;23.676;2023-07-08T07:35:13;92420.56;;;20.73;91.63
10958;BME280;5531;42.570;23.676;2023-07-08T07:37:43;92421.78;;;20.65;92.71
10958;BME280;5531;42.570;23.676;2023-07-08T07:40:13;92403.75;;;20.73;93.33
10958;BME280;5531;42.570;23.676;2023-07-08T07:42:44;92420.81;;;20.72;92.06
10958;BME280;5531;42.570;23.676;2023-07-08T07:45:14;92409.13;;;20.78;91.75
10958;BME280;5531;42.570;23.676;2023-07-08T07:47:43;92419.03;;;20.82;91.21
10958;BME280;5531;42.570;23.676;2023-07-08T07:50:14;92419.78;;;20.78;91.53
10958;BME280;5531;42.570;23.676;2023-07-08T07:52:43;92416.09;;;20.79;91.35
10958;BME280;5531;42.570;23.676;2023-07-08T07:55:13;92419.88;;;20.83;90.51
10958;BME280;5531;42.570;23.676;2023-07-08T07:57:42;92411.59;;;20.62;88.15
10958;BME280;5531;42.570;23.676;2023-07-08T08:00:12;92412.72;;;20.44;89.81
10958;BME280;5531;42.570;23.676;2023-07-08T08:02:43;92414.69;;;20.54;91.45
10958;BME280;5531;42.570;23.676;2023-07-08T08:05:18;92414.25;;;20.62;91.61
10958;BME280;5531;42.570;23.676;2023-07-08T08:07:47;92406.13;;;20.69;87.87
10958;BME280;5531;42.570;23.676;2023-07-08T08:10:16;92413.56;;;20.67;89.57
10958;BME280;5531;42.570;23.676;2023-07-08T08:12:45;92413.00;;;20.65;90.09
10958;BME280;5531;42.570;23.676;2023-07-08T08:15:16;92415.72;;;20.70;89.29
10958;BME280;5531;42.570;23.676;2023-07-08T08:17:45;92416.03;;;20.74;90.14
10958;BME280;5531;42.570;23.676;2023-07-08T08:20:21;92414.09;;;20.91;89.75
10958;BME280;5531;42.570;23.676;2023-07-08T08:22:50;92424.84;;;21.01;90.11
10958;BME280;5531;42.570;23.676;2023-07-08T08:25:21;92416.03;;;20.96;86.21
10958;BME280;5531;42.570;23.676;2023-07-08T08:27:50;92416.56;;;20.98;87.84
10958;BME280;5531;42.570;23.676;2023-07-08T08:30:19;92419.81;;;21.05;89.81
10958;BME280;5531;42.570;23.676;2023-07-08T08:32:48;92428.94;;;21.09;89.36
10958;BME280;5531;42.570;23.676;2023-07-08T08:35:20;92424.34;;;21.04;88.53
10958;BME280;5531;42.570;23.676;2023-07-08T08:37:49;92431.44;;;20.94;87.46
10958;BME280;5531;42.570;23.676;2023-07-08T08:40:19;92422.63;;;20.93;89.57
10958;BME280;5531;42.570;23.676;2023-07-08T08:42:52;92425.09;;;21.00;90.40
10958;BME280;5531;42.570;23.676;2023-07-08T08:45:22;92431.91;;;21.13;87.82
10958;BME280;5531;42.570;23.676;2023-07-08T08:47:56;92425.66;;;21.02;85.95
10958;BME280;5531;42.570;23.676;2023-07-08T08:50:32;92421.44;;;21.06;87.10
10958;BME280;5531;42.570;23.676;2023-07-08T08:53:04;92422.50;;;21.05;87.94
10958;BME280;5531;42.570;23.676;2023-07-08T08:55:34;92431.81;;;21.02;89.24
10958;BME280;5531;42.570;23.676;2023-07-08T08:58:12;92420.66;;;21.05;89.38
10958;BME280;5531;42.570;23.676;2023-07-08T09:00:49;92417.16;;;21.05;87.34
10958;BME280;5531;42.570;23.676;2023-07-08T09:03:32;92418.63;;;21.18;88.87
10958;BME280;5531;42.570;23.676;2023-07-08T09:06:12;92405.47;;;21.33;88.63
10958;BME280;5531;42.570;23.676;2023-07-08T09:08:42;92414.88;;;21.46;87.06
10958;BME280;5531;42.570;23.676;2023-07-08T09:11:19;92414.72;;;21.53;88.14
10958;BME280;5531;42.570;23.676;2023-07-08T09:13:51;92417.06;;;21.49;87.76
10958;BME280;5531;42.570;23.676;2023-07-08T09:16:27;92419.50;;;21.51;87.40
10958;BME280;5531;42.570;23.676;2023-07-08T09:19:00;92420.69;;;21.38;83.63
10958;BME280;5531;42.570;23.676;2023-07-08T09:21:40;92404.50;;;21.17;85.49
10958;BME280;5531;42.570;23.676;2023-07-08T09:24:16;92405.66;;;21.27;87.08
10958;BME280;5531;42.570;23.676;2023-07-08T09:26:47;92402.53;;;21.35;83.53
10958;BME280;5531;42.570;23.676;2023-07-08T09:29:18;92413.25;;;21.40;84.80
10958;BME280;5531;42.570;23.676;2023-07-08T09:31:47;92417.69;;;21.56;85.15
10958;BME280;5531;42.570;23.676;2023-07-08T09:34:22;92409.50;;;21.68;84.51
10958;BME280;5531;42.570;23.676;2023-07-08T09:36:55;92410.16;;;21.81;87.99
10958;BME280;5531;42.570;23.676;2023-07-08T09:39:24;92410.94;;;21.81;83.83
10958;BME280;5531;42.570;23.676;2023-07-08T09:41:56;92400.34;;;21.91;81.61
10958;BME280;5531;42.570;23.676;2023-07-08T09:44:28;92407.63;;;22.01;83.01
10958;BME280;5531;42.570;23.676;2023-07-08T09:46:59;92393.75;;;22.04;83.38
10958;BME280;5531;42.570;23.676;2023-07-08T09:49:33;92386.88;;;22.08;81.82
10958;BME280;5531;42.570;23.676;2023-07-08T09:52:05;92375.38;;;22.13;84.95
10958;BME280;5531;42.570;23.676;2023-07-08T09:54:34;92386.38;;;22.17;86.03
10958;BME280;5531;42.570;23.676;2023-07-08T09:57:05;92376.00;;;22.25;82.80
10958;BME280;5531;42.570;23.676;2023-07-08T09:59:40;92369.88;;;22.25;81.66
10958;BME280;5531;42.570;23.676;2023-07-08T10:02:27;92378.47;;;22.32;82.06
10958;BME280;5531;42.570;23.676;2023-07-08T10:04:59;92380.38;;;22.37;83.71
10958;BME280;5531;42.570;23.676;2023-07-08T10:07:32;92380.81;;;22.23;82.27
10958;BME280;5531;42.570;23.676;2023-07-08T10:10:06;92378.91;;;22.19;82.30
10958;BME280;5531;42.570;23.676;2023-07-08T10:12:38;92380.03;;;22.28;83.01
10958;BME280;5531;42.570;23.676;2023-07-08T10:15:18;92384.59;;;22.32;79.58
10958;BME280;5531;42.570;23.676;2023-07-08T10:17:49;92384.91;;;22.36;84.34
10958;BME280;5531;42.570;23.676;2023-07-08T10:20:18;92371.88;;;22.50;83.85
10958;BME280;5531;42.570;23.676;2023-07-08T10:22:57;92382.84;;;22.54;82.00
10958;BME280;5531;42.570;23.676;2023-07-08T10:25:36;92367.66;;;22.64;84.25
10958;BME280;5531;42.570;23.676;2023-07-08T10:28:21;92380.50;;;22.67;77.44
10958;BME280;5531;42.570;23.676;2023-07-08T10:31:01;92369.81;;;22.67;84.27
10958;BME280;5531;42.570;23.676;2023-07-08T10:33:48;92374.94;;;22.84;83.85
10958;BME280;5531;42.570;23.676;2023-07-08T10:36:28;92371.44;;;22.74;80.23
10958;BME280;5531;42.570;23.676;2023-07-08T10:39:18;92359.91;;;22.63;78.35
10958;BME280;5531;42.570;23.676;2023-07-08T10:41:54;92356.97;;;22.64;83.23
10958;BME280;5531;42.570;23.676;2023-07-08T10:44:33;92354.59;;;22.73;80.98
10958;BME280;5531;42.570;23.676;2023-07-08T10:47:12;92358.09;;;22.84;77.55
10958;BME280;5531;42.570;23.676;2023-07-08T10:49:54;92357.84;;;22.91;75.39
10958;BME280;5531;42.570;23.676;2023-07-08T10:52:39;92358.47;;;23.13;75.36
10958;BME280;5531;42.570;23.676;2023-07-08T10:55:24;92355.53;;;23.20;77.39
10958;BME280;5531;42.570;23.676;2023-07-08T11:00:55;92350.19;;;23.35;72.69
10958;BME280;5531;42.570;23.676;2023-07-08T11:04:12;92351.47;;;23.02;77.13
10958;BME280;5531;42.570;23.676;2023-07-08T11:06:49;92345.91;;;23.14;76.25
10958;BME280;5531;42.570;23.676;2023-07-08T11:09:26;92336.81;;;23.20;78.26
10958;BME280;5531;42.570;23.676;2023-07-08T11:12:07;92337.66;;;23.36;75.61
10958;BME280;5531;42.570;23.676;2023-07-08T11:14:42;92343.00;;;23.41;74.46
10958;BME280;5531;42.570;23.676;2023-07-08T11:17:18;92333.88;;;23.37;75.25
10958;BME280;5531;42.570;23.676;2023-07-08T11:19:55;92337.09;;;23.49;78.56
10958;BME280;5531;42.570;23.676;2023-07-08T11:22:29;92318.91;;;23.51;74.85
10958;BME280;5531;42.570;23.676;2023-07-08T11:25:04;92329.63;;;23.46;73.32
10958;BME280;5531;42.570;23.676;2023-07-08T11:27:40;92321.84;;;23.45;73.68
10958;BME280;5531;42.570;23.676;2023-07-08T11:30:14;92308.75;;;23.43;75.40
10958;BME280;5531;42.570;23.676;2023-07-08T11:32:45;92317.31;;;23.55;75.84
10958;BME280;5531;42.570;23.676;2023-07-08T11:35:20;92321.84;;;23.70;73.78
10958;BME280;5531;42.570;23.676;2023-07-08T11:37:50;92329.59;;;23.77;76.70
10958;BME280;5531;42.570;23.676;2023-07-08T11:40:21;92324.81;;;23.58;72.44
10958;BME280;5531;42.570;23.676;2023-07-08T11:43:01;92331.50;;;23.56;73.84
10958;BME280;5531;42.570;23.676;2023-07-08T11:45:33;92328.28;;;23.49;74.14
10958;BME280;5531;42.570;23.676;2023-07-08T11:48:10;92330.41;;;23.47;72.90
10958;BME280;5531;42.570;23.676;2023-07-08T11:50:42;92329.59;;;23.56;69.70
10958;BME280;5531;42.570;23.676;2023-07-08T11:53:13;92335.50;;;23.58;71.17
10958;BME280;5531;42.570;23.676;2023-07-08T11:55:47;92341.13;;;23.52;71.04
10958;BME280;5531;42.570;23.676;2023-07-08T11:58:24;92338.69;;;23.66;74.77
10958;BME280;5531;42.570;23.676;2023-07-08T12:03:48;92332.53;;;23.80;72.54
10958;BME280;5531;42.570;23.676;2023-07-08T12:06:42;92336.28;;;23.79;73.16
10958;BME280;5531;42.570;23.676;2023-07-08T12:09:21;92334.41;;;23.80;75.76
10958;BME280;5531;42.570;23.676;2023-07-08T12:11:59;92339.78;;;23.90;73.94
10958;BME280;5531;42.570;23.676;2023-07-08T12:14:31;92343.25;;;23.96;73.60
10958;BME280;5531;42.570;23.676;2023-07-08T12:17:00;92330.13;;;24.00;72.47
10958;BME280;5531;42.570;23.676;2023-07-08T12:19:30;92323.16;;;24.09;69.26
10958;BME280;5531;42.570;23.676;2023-07-08T12:22:01;92334.38;;;24.11;72.09
10958;BME280;5531;42.570;23.676;2023-07-08T12:24:30;92326.88;;;24.13;72.66
10958;BME280;5531;42.570;23.676;2023-07-08T12:27:00;92328.19;;;24.21;71.77
10958;BME280;5531;42.570;23.676;2023-07-08T12:29:31;92319.09;;;24.27;70.69
10958;BME280;5531;42.570;23.676;2023-07-08T12:32:01;92328.72;;;24.23;69.06
10958;BME280;5531;42.570;23.676;2023-07-08T12:34:31;92319.09;;;24.27;69.76
10958;BME280;5531;42.570;23.676;2023-07-08T12:37:03;92311.88;;;24.17;68.80
10958;BME280;5531;42.570;23.676;2023-07-08T12:39:33;92311.06;;;24.16;71.16
10958;BME280;5531;42.570;23.676;2023-07-08T12:42:09;92296.91;;;24.11;71.02
10958;BME280;5531;42.570;23.676;2023-07-08T12:44:43;92297.19;;;24.09;69.32
10958;BME280;5531;42.570;23.676;2023-07-08T12:47:12;92303.84;;;24.12;67.76
10958;BME280;5531;42.570;23.676;2023-07-08T12:49:41;92310.06;;;24.02;70.90
10958;BME280;5531;42.570;23.676;2023-07-08T12:52:22;92304.72;;;23.87;69.23
10958;BME280;5531;42.570;23.676;2023-07-08T12:54:51;92297.22;;;23.84;74.35
10958;BME280;5531;42.570;23.676;2023-07-08T12:57:20;92301.25;;;23.91;73.82
10958;BME280;5531;42.570;23.676;2023-07-08T12:59:52;92300.44;;;23.96;71.66
10958;BME280;5531;42.570;23.676;2023-07-08T13:02:22;92309.00;;;23.93;68.75
10958;BME280;5531;42.570;23.676;2023-07-08T13:04:59;92308.19;;;23.82;70.04
10958;BME280;5531;42.570;23.676;2023-07-08T13:07:35;92321.84;;;23.75;70.90
10958;BME280;5531;42.570;23.676;2023-07-08T13:10:17;92325.31;;;23.76;72.58
10958;BME280;5531;42.570;23.676;2023-07-08T13:12:48;92319.72;;;23.88;69.64
10958;BME280;5531;42.570;23.676;2023-07-08T13:15:26;92321.03;;;23.90;72.95
10958;BME280;5531;42.570;23.676;2023-07-08T13:17:56;92333.06;;;24.03;71.15
10958;BME280;5531;42.570;23.676;2023-07-08T13:20:26;92310.28;;;24.11;69.73
10958;BME280;5531;42.570;23.676;2023-07-08T13:22:59;92320.72;;;24.18;70.89
10958;BME280;5531;42.570;23.676;2023-07-08T13:25:30;92318.81;;;24.23;70.05